Time;durP1;ratioP1;P1;durP2;ratioP2;P2;SDS_P1;SDS_P2;PMS_P1;PMS_P2;Temp;Humidity;BMP_temperature;BMP_pressure;BME280_temperature;BME280_humidity;BME280_pressure;Samples;Min_cycle;Max_cycle;Signal;HPM_P1;HPM_P2
2023/07/30 00:00:27;;;;;;;2.25;1.73;;;;;;;19.67;52.65;94629.59;5112934;28;20505;-78
2023/07/30 00:02:53;;;;;;;3.17;1.85;;;;;;;19.62;52.88;94638.84;5114675;28;20036;-77
2023/07/30 00:05:18;;;;;;;2.63;1.90;;;;;;;19.49;53.24;94624.72;5079108;28;20020;-77
2023/07/30 00:07:43;;;;;;;3.03;2.05;;;;;;;19.54;53.23;94636.34;5114429;28;20051;-78
2023/07/30 00:10:09;;;;;;;4.53;2.08;;;;;;;19.40;53.83;94631.94;5112749;28;20554;-77
2023/07/30 00:12:34;;;;;;;4.05;2.10;;;;;;;19.33;54.20;94631.03;5114119;28;20108;-78
2023/07/30 00:15:00;;;;;;;2.60;1.73;;;;;;;19.36;54.10;94630.66;5095800;28;20428;-78
2023/07/30 00:17:25;;;;;;;2.75;2.08;;;;;;;19.38;54.20;94633.91;5112774;28;20032;-77
2023/07/30 00:19:50;;;;;;;2.95;2.05;;;;;;;19.35;54.48;94634.28;5114302;28;20496;-78
2023/07/30 00:22:16;;;;;;;2.60;2.00;;;;;;;19.30;54.44;94620.88;5114084;28;20035;-77
2023/07/30 00:24:41;;;;;;;2.70;2.10;;;;;;;19.30;54.51;94626.13;5112964;28;20020;-78
2023/07/30 00:27:07;;;;;;;4.60;2.05;;;;;;;19.25;54.84;94623.22;5112637;28;20048;-77
2023/07/30 00:29:32;;;;;;;2.83;2.00;;;;;;;19.26;54.93;94635.41;5113050;28;20398;-77
2023/07/30 00:31:57;;;;;;;2.42;2.08;;;;;;;19.24;54.72;94621.59;5113682;28;20030;-77
2023/07/30 00:34:23;;;;;;;3.15;2.17;;;;;;;19.30;54.91;94632.22;5112571;28;20020;-77
2023/07/30 00:36:48;;;;;;;2.90;2.15;;;;;;;19.20;55.10;94619.34;5113487;27;20089;-76
2023/07/30 00:39:14;;;;;;;2.83;2.30;;;;;;;19.26;55.27;94624.88;5095334;28;20413;-78
2023/07/30 00:41:39;;;;;;;2.90;2.10;;;;;;;19.13;55.60;94609.72;5100491;28;20026;-78
2023/07/30 00:44:04;;;;;;;2.92;2.28;;;;;;;19.17;55.46;94618.91;5113525;28;20028;-77
2023/07/30 00:46:30;;;;;;;6.07;2.05;;;;;;;19.12;55.83;94611.56;5111877;28;20550;-78
2023/07/30 00:48:55;;;;;;;4.32;2.60;;;;;;;19.14;55.88;94622.72;5095093;28;20038;-77
2023/07/30 00:51:21;;;;;;;2.80;2.10;;;;;;;19.06;56.05;94620.19;5112060;28;20503;-78
2023/07/30 00:53:46;;;;;;;3.42;2.22;;;;;;;19.07;56.34;94627.06;5112190;28;20036;-77
2023/07/30 00:56:12;;;;;;;2.72;2.13;;;;;;;19.00;56.20;94615.66;5095163;28;20027;-78
2023/07/30 00:58:37;;;;;;;3.38;2.22;;;;;;;18.92;56.47;94629.72;5112053;28;20093;-78
2023/07/30 01:01:03;;;;;;;3.80;2.20;;;;;;;18.94;56.58;94626.91;5112089;28;20056;-77
2023/07/30 01:03:28;;;;;;;2.72;2.20;;;;;;;18.91;56.62;94628.09;5111523;28;20032;-78
2023/07/30 01:05:53;;;;;;;4.65;2.30;;;;;;;18.91;56.78;94635.16;5095143;28;20080;-78
2023/07/30 01:08:19;;;;;;;4.05;2.17;;;;;;;18.93;56.66;94626.09;5094414;28;20433;-78
2023/07/30 01:10:44;;;;;;;3.50;2.30;;;;;;;18.91;56.53;94620.19;5093900;28;20028;-77
2023/07/30 01:13:10;;;;;;;3.35;2.38;;;;;;;18.83;56.78;94624.72;5111334;28;20034;-78
2023/07/30 01:15:36;;;;;;;3.13;2.03;;;;;;;18.86;56.55;94633.09;5094739;28;20028;-78
2023/07/30 01:18:01;;;;;;;3.25;2.40;;;;;;;18.77;57.03;94631.53;5111372;28;20031;-77
2023/07/30 01:20:31;;;;;;;3.10;2.22;;;;;;;18.83;56.85;94632.63;5111688;28;20039;-77
2023/07/30 01:23:00;;;;;;;2.97;2.27;;;;;;;18.82;56.89;94631.00;5111544;28;20393;-76
2023/07/30 01:25:29;;;;;;;3.05;2.30;;;;;;;18.74;56.99;94632.72;5111595;28;20051;-77
2023/07/30 01:27:55;;;;;;;3.78;2.40;;;;;;;18.67;57.32;94630.97;5111551;28;20040;-77
2023/07/30 01:30:32;;;;;;;2.97;2.33;;;;;;;18.67;57.42;94628.34;5094370;28;20031;-77
2023/07/30 01:32:58;;;;;;;4.07;2.40;;;;;;;18.68;56.96;94622.91;5111145;28;20115;-77
2023/07/30 01:35:27;;;;;;;3.80;2.28;;;;;;;18.61;57.39;94629.06;5094307;28;20028;-77
2023/07/30 01:37:52;;;;;;;3.50;2.45;;;;;;;18.59;57.38;94628.44;5094370;28;20023;-77
2023/07/30 01:40:18;;;;;;;3.17;2.28;;;;;;;18.48;57.50;94624.44;5071731;28;20032;-78
2023/07/30 01:42:43;;;;;;;4.03;2.60;;;;;;;18.43;57.83;94624.16;5073909;28;20485;-78
2023/07/30 01:45:08;;;;;;;3.17;2.25;;;;;;;18.39;57.94;94634.22;5108602;28;20053;-78
2023/07/30 01:47:34;;;;;;;3.15;2.28;;;;;;;18.36;57.93;94639.00;5094073;28;20401;-78
2023/07/30 01:49:59;;;;;;;2.97;2.25;;;;;;;18.25;57.85;94621.88;5110932;28;20034;-78
2023/07/30 01:52:25;;;;;;;3.08;2.30;;;;;;;18.29;58.16;94639.72;5112152;28;20028;-77
2023/07/30 01:54:50;;;;;;;3.35;2.60;;;;;;;18.24;58.46;94642.06;5110763;28;20067;-77
2023/07/30 01:57:16;;;;;;;4.05;2.80;;;;;;;18.25;58.48;94640.28;5112509;28;20031;-77
2023/07/30 01:59:41;;;;;;;3.80;2.67;;;;;;;18.35;58.36;94638.19;5110813;28;20027;-78
2023/07/30 02:02:07;;;;;;;3.25;2.47;;;;;;;18.33;58.46;94642.84;5112230;28;20048;-77
2023/07/30 02:04:33;;;;;;;3.25;2.63;;;;;;;18.41;58.08;94641.91;5093755;28;20080;-77
2023/07/30 02:06:58;;;;;;;3.90;2.50;;;;;;;18.30;58.64;94640.53;5093734;28;20027;-77
2023/07/30 02:09:24;;;;;;;3.10;2.45;;;;;;;18.27;58.32;94625.13;5110494;28;20520;-76
2023/07/30 02:11:49;;;;;;;2.97;2.40;;;;;;;18.21;58.75;94634.53;5093677;28;20035;-77
2023/07/30 02:14:14;;;;;;;3.70;2.80;;;;;;;18.39;58.47;94636.03;5110395;28;20028;-78
2023/07/30 02:16:40;;;;;;;3.10;2.60;;;;;;;18.19;58.95;94636.56;5109872;28;20073;-77
2023/07/30 02:19:05;;;;;;;3.08;2.17;;;;;;;18.22;58.82;94635.34;5092712;28;20035;-78
2023/07/30 02:21:32;;;;;;;3.53;2.40;;;;;;;18.17;59.38;94645.59;5110402;28;20405;-77
2023/07/30 02:23:59;;;;;;;3.83;2.60;;;;;;;17.99;59.46;94638.00;5091857;28;20028;-78
2023/07/30 02:26:24;;;;;;;4.55;2.78;;;;;;;18.04;59.48;94635.69;5091446;28;20037;-77
2023/07/30 02:28:49;;;;;;;3.95;2.75;;;;;;;18.11;59.57;94649.75;5108652;28;20035;-77
2023/07/30 02:31:15;;;;;;;3.70;2.58;;;;;;;17.98;59.77;94641.66;5092156;28;20031;-77
2023/07/30 02:33:40;;;;;;;3.75;2.70;;;;;;;18.08;59.60;94655.38;5110673;28;20062;-78
2023/07/30 02:36:06;;;;;;;3.33;2.55;;;;;;;18.04;60.06;94659.34;5110397;28;20023;-77
2023/07/30 02:38:31;;;;;;;4.43;2.60;;;;;;;17.95;60.30;94657.78;5110357;28;20032;-78
2023/07/30 02:40:57;;;;;;;5.38;2.70;;;;;;;17.92;60.23;94651.06;5099519;28;20035;-78
2023/07/30 02:43:22;;;;;;;3.05;2.40;;;;;;;17.90;60.17;94646.97;5090287;28;20040;-78
2023/07/30 02:45:48;;;;;;;3.58;2.78;;;;;;;17.99;60.11;94664.28;5073270;28;20482;-77
2023/07/30 02:48:13;;;;;;;3.72;2.70;;;;;;;17.89;60.21;94654.03;5073015;28;20482;-78
2023/07/30 02:50:39;;;;;;;3.22;2.50;;;;;;;17.65;60.45;94618.22;5056401;28;20080;-77
2023/07/30 02:53:04;;;;;;;3.55;2.78;;;;;;;17.80;60.52;94666.41;5072966;28;20117;-77
2023/07/30 02:55:30;;;;;;;4.00;3.03;;;;;;;17.80;60.60;94665.56;5089852;28;20024;-78
2023/07/30 02:57:55;;;;;;;3.25;2.65;;;;;;;17.75;60.90;94662.66;5073009;28;20047;-78
2023/07/30 03:00:20;;;;;;;4.13;2.70;;;;;;;17.75;61.00;94660.84;5073215;28;20024;-77
2023/07/30 03:02:46;;;;;;;2.95;2.60;;;;;;;17.74;61.10;94667.06;5073023;28;20047;-77
2023/07/30 03:05:11;;;;;;;4.28;3.20;;;;;;;17.79;60.72;94666.56;5090074;28;20477;-77
2023/07/30 03:07:37;;;;;;;3.28;2.85;;;;;;;17.76;61.01;94670.34;5089566;28;20036;-78
2023/07/30 03:10:03;;;;;;;3.90;3.00;;;;;;;17.71;61.28;94677.91;5089700;28;20028;-77
2023/07/30 03:12:28;;;;;;;3.15;2.47;;;;;;;17.61;61.44;94678.16;5089938;28;20111;-77
2023/07/30 03:14:53;;;;;;;4.35;2.70;;;;;;;17.74;61.25;94679.38;5091017;28;20028;-77
2023/07/30 03:17:19;;;;;;;3.40;2.90;;;;;;;17.68;61.16;94674.84;5091006;28;20047;-77
2023/07/30 03:19:44;;;;;;;3.75;2.83;;;;;;;17.61;61.00;94662.41;5089809;28;20074;-77
2023/07/30 03:22:09;;;;;;;3.17;2.50;;;;;;;17.68;61.28;94678.28;5089885;28;20036;-78
2023/07/30 03:24:35;;;;;;;4.00;3.00;;;;;;;17.71;61.17;94671.84;5089870;28;20032;-77
2023/07/30 03:27:00;;;;;;;3.63;2.90;;;;;;;17.65;61.45;94678.63;5072749;28;20095;-77
2023/07/30 03:29:26;;;;;;;4.13;2.78;;;;;;;17.59;61.71;94677.50;5090735;28;20017;-77
2023/07/30 03:31:51;;;;;;;3.22;2.38;;;;;;;17.56;61.75;94664.72;5090870;28;20440;-77
2023/07/30 03:34:16;;;;;;;3.13;2.70;;;;;;;17.53;61.65;94662.44;5073382;28;20470;-77
2023/07/30 03:36:42;;;;;;;4.88;2.85;;;;;;;17.36;61.79;94640.72;5076399;28;20501;-77
2023/07/30 03:39:07;;;;;;;4.90;2.90;;;;;;;17.55;61.88;94672.75;5076391;28;20039;-77
2023/07/30 03:41:33;;;;;;;3.70;2.92;;;;;;;17.53;62.00;94670.31;5078808;28;20070;-78
2023/07/30 03:43:58;;;;;;;3.90;2.72;;;;;;;17.47;62.32;94672.81;5070466;28;20032;-78
2023/07/30 03:46:23;;;;;;;5.20;2.95;;;;;;;17.51;62.17;94671.47;5093131;28;20077;-78
2023/07/30 03:48:49;;;;;;;3.80;2.92;;;;;;;17.44;62.10;94663.50;5076307;28;20038;-77
2023/07/30 03:51:14;;;;;;;4.00;2.58;;;;;;;17.49;62.30;94668.22;5094410;28;20406;-77
2023/07/30 03:53:40;;;;;;;4.32;3.30;;;;;;;17.41;62.44;94669.91;5076216;28;20040;-78
2023/07/30 03:56:05;;;;;;;3.67;3.10;;;;;;;17.36;62.37;94651.22;5076118;28;20024;-78
2023/07/30 03:58:30;;;;;;;4.95;3.22;;;;;;;17.57;62.02;94670.78;5092983;28;20513;-77
2023/07/30 04:00:56;;;;;;;4.05;3.10;;;;;;;17.47;62.14;94671.03;5059512;28;20035;-77
2023/07/30 04:03:21;;;;;;;3.58;3.00;;;;;;;17.46;62.59;94673.81;5094205;28;20119;-77
2023/07/30 04:05:47;;;;;;;4.93;3.08;;;;;;;17.34;63.00;94682.06;5092818;28;20486;-77
2023/07/30 04:08:12;;;;;;;3.95;3.40;;;;;;;17.47;62.83;94686.78;5092711;28;20067;-77
2023/07/30 04:10:37;;;;;;;3.63;3.17;;;;;;;17.42;62.99;94687.28;5093834;28;20024;-77
2023/07/30 04:13:03;;;;;;;3.70;3.30;;;;;;;17.51;62.42;94677.53;5075625;28;20410;-77
2023/07/30 04:15:28;;;;;;;4.13;3.10;;;;;;;17.62;62.58;94694.72;5093933;28;20028;-77
2023/07/30 04:17:54;;;;;;;3.88;3.25;;;;;;;17.78;61.96;94688.56;5093909;28;20496;-77
2023/07/30 04:20:19;;;;;;;3.85;2.90;;;;;;;17.83;61.31;94668.69;5092539;28;20077;-78
2023/07/30 04:22:44;;;;;;;3.25;2.65;;;;;;;18.30;59.84;94677.34;5092431;28;20032;-77
2023/07/30 04:25:13;;;;;;;4.28;3.15;;;;;;;18.58;58.95;94682.84;5075412;28;20490;-77
2023/07/30 04:27:38;;;;;;;4.25;3.10;;;;;;;18.83;58.12;94687.88;5092354;28;20043;-78
2023/07/30 04:30:07;;;;;;;3.83;3.10;;;;;;;18.97;57.92;94682.66;5092216;28;20028;-77
2023/07/30 04:32:32;;;;;;;3.50;2.80;;;;;;;19.29;56.49;94682.44;5092230;28;20040;-77
2023/07/30 04:34:58;;;;;;;3.65;3.03;;;;;;;19.50;56.00;94671.13;5093599;28;20055;-77
2023/07/30 04:37:23;;;;;;;5.80;3.10;;;;;;;19.67;55.52;94682.28;5093071;28;20040;-77
2023/07/30 04:39:49;;;;;;;3.75;3.00;;;;;;;19.74;55.64;94681.38;5073584;28;20027;-78
2023/07/30 04:42:15;;;;;;;3.67;2.80;;;;;;;19.91;54.84;94665.31;5054926;28;20131;-77
2023/07/30 04:44:40;;;;;;;3.55;2.95;;;;;;;20.37;53.40;94676.28;5038426;28;20029;-77
2023/07/30 04:47:06;;;;;;;3.53;3.13;;;;;;;20.80;52.80;94688.59;5070815;28;20025;-77
2023/07/30 04:49:31;;;;;;;3.88;2.80;;;;;;;20.88;52.15;94694.53;5071445;28;20020;-77
2023/07/30 04:51:57;;;;;;;4.95;2.95;;;;;;;21.26;51.16;94680.16;5038083;28;20047;-77
2023/07/30 04:54:22;;;;;;;4.28;3.08;;;;;;;21.91;49.77;94685.88;5054720;28;20074;-77
2023/07/30 04:56:47;;;;;;;3.28;2.70;;;;;;;22.30;48.67;94678.03;5054648;28;20028;-78
2023/07/30 04:59:13;;;;;;;3.60;3.05;;;;;;;22.63;47.47;94682.53;5086667;28;20020;-78
2023/07/30 05:01:38;;;;;;;8.05;3.17;;;;;;;22.42;47.23;94674.78;5094844;28;20031;-76
2023/07/30 05:04:04;;;;;;;5.00;3.20;;;;;;;22.42;47.69;94696.75;5111907;28;20036;-77
2023/07/30 05:06:29;;;;;;;5.75;3.10;;;;;;;22.49;47.67;94691.47;5102739;28;20110;-77
2023/07/30 05:08:54;;;;;;;3.30;2.53;;;;;;;22.50;47.96;94690.44;5074416;28;20525;-77
2023/07/30 05:11:20;;;;;;;4.22;2.70;;;;;;;22.88;47.19;94684.53;5074365;28;20406;-77
2023/07/30 05:13:45;;;;;;;4.00;2.83;;;;;;;22.95;47.52;94680.88;5092982;28;20036;-77
2023/07/30 05:16:11;;;;;;;3.47;3.00;;;;;;;23.02;46.24;94688.00;5057648;28;20039;-77
2023/07/30 05:18:36;;;;;;;4.18;3.05;;;;;;;23.18;45.86;94684.91;5074670;28;20036;-77
2023/07/30 05:21:01;;;;;;;5.65;3.38;;;;;;;22.86;46.56;94684.72;5092443;28;20024;-79
2023/07/30 05:23:28;;;;;;;6.38;3.40;;;;;;;22.71;46.57;94679.66;5091230;28;20056;-79
2023/07/30 05:25:53;;;;;;;4.95;3.63;;;;;;;22.71;47.00;94679.66;5074296;28;20024;-77
2023/07/30 05:28:19;;;;;;;5.85;3.38;;;;;;;22.85;46.68;94683.13;5091075;28;20036;-77
2023/07/30 05:30:44;;;;;;;4.20;3.30;;;;;;;22.78;46.81;94684.13;5092074;28;20409;-77
2023/07/30 05:33:09;;;;;;;5.30;3.00;;;;;;;22.81;47.13;94681.88;5092329;28;20036;-77
2023/07/30 05:35:35;;;;;;;7.43;2.95;;;;;;;22.77;46.32;94656.03;5092060;28;20012;-77
2023/07/30 05:38:00;;;;;;;6.95;3.00;;;;;;;23.08;46.53;94676.56;5099222;28;20061;-77
2023/07/30 05:40:26;;;;;;;5.13;3.15;;;;;;;23.28;46.07;94685.28;5104371;28;20020;-77
2023/07/30 05:42:51;;;;;;;4.35;2.70;;;;;;;23.31;46.71;94684.03;5092084;28;20024;-77
2023/07/30 05:45:17;;;;;;;4.30;2.80;;;;;;;23.10;46.06;94693.09;5091852;28;20032;-77
2023/07/30 05:47:42;;;;;;;4.75;3.28;;;;;;;23.86;44.67;94695.88;5090541;28;20446;-77
2023/07/30 05:50:08;;;;;;;4.10;2.95;;;;;;;23.61;45.37;94687.81;5090474;28;20032;-76
2023/07/30 05:52:33;;;;;;;5.65;3.00;;;;;;;23.75;44.53;94695.75;5091816;28;20060;-76
2023/07/30 05:54:59;;;;;;;4.72;2.80;;;;;;;23.79;45.00;94692.47;5091751;28;20028;-76
2023/07/30 05:57:24;;;;;;;4.07;3.05;;;;;;;23.85;44.85;94690.81;5089191;28;20070;-76
2023/07/30 05:59:50;;;;;;;6.07;3.60;;;;;;;23.97;44.57;94689.09;5091612;28;20020;-76
2023/07/30 06:02:15;;;;;;;4.55;3.25;;;;;;;23.77;45.21;94683.91;5090222;28;20069;-76
2023/07/30 06:04:41;;;;;;;5.75;2.90;;;;;;;23.76;45.36;94692.06;5073262;28;20521;-76
2023/07/30 06:07:06;;;;;;;6.63;3.30;;;;;;;23.70;45.12;94683.06;5056725;28;20024;-76
2023/07/30 06:09:31;;;;;;;3.85;3.00;;;;;;;23.76;45.61;94689.41;5090039;28;20056;-76
2023/07/30 06:12:00;;;;;;;3.75;2.75;;;;;;;23.85;45.33;94688.16;5090166;28;20476;-76
2023/07/30 06:14:25;;;;;;;6.03;3.30;;;;;;;23.92;45.42;94696.88;5072540;28;20031;-76
2023/07/30 06:16:51;;;;;;;4.13;2.97;;;;;;;23.92;45.47;94680.16;5072967;28;20020;-76
2023/07/30 06:19:17;;;;;;;4.53;3.22;;;;;;;24.02;45.38;94680.50;5089972;28;20040;-77
2023/07/30 06:21:42;;;;;;;3.75;3.10;;;;;;;24.43;44.23;94685.38;5090901;28;20020;-76
2023/07/30 06:24:08;;;;;;;6.30;3.33;;;;;;;24.46;44.50;94692.06;5089914;28;20085;-76
2023/07/30 06:26:33;;;;;;;5.63;3.53;;;;;;;24.48;44.08;94693.47;5069630;28;20054;-76
2023/07/30 06:28:58;;;;;;;5.85;3.20;;;;;;;24.66;43.89;94686.59;5071274;28;20085;-76
2023/07/30 06:31:24;;;;;;;9.25;3.10;;;;;;;25.09;43.18;94688.44;5070879;28;20028;-76
2023/07/30 06:33:49;;;;;;;4.60;3.03;;;;;;;25.17;42.65;94670.41;5069769;28;20029;-76
2023/07/30 06:36:15;;;;;;;6.68;3.40;;;;;;;25.05;43.04;94679.31;5070823;28;20490;-76
2023/07/30 06:38:40;;;;;;;5.40;3.00;;;;;;;25.34;42.34;94675.94;5073145;28;20035;-77
2023/07/30 06:41:06;;;;;;;7.03;3.13;;;;;;;25.14;42.71;94667.34;5090068;28;20039;-77
2023/07/30 06:43:31;;;;;;;6.65;3.50;;;;;;;25.11;42.82;94668.59;5090287;28;20032;-77
2023/07/30 06:45:56;;;;;;;4.68;3.17;;;;;;;25.13;42.63;94665.69;5089298;28;20028;-76
2023/07/30 06:48:22;;;;;;;5.13;2.67;;;;;;;25.24;42.07;94667.69;5089593;28;20043;-76
2023/07/30 06:50:47;;;;;;;6.82;3.30;;;;;;;25.07;42.40;94661.28;5072738;28;20036;-76
2023/07/30 06:53:13;;;;;;;8.25;2.97;;;;;;;25.11;42.02;94665.94;5088999;28;20039;-76
2023/07/30 06:55:38;;;;;;;6.68;3.50;;;;;;;25.22;41.58;94653.78;5088476;28;20027;-76
2023/07/30 06:58:04;;;;;;;5.97;3.08;;;;;;;25.66;40.85;94654.50;5089670;28;20410;-76
2023/07/30 07:00:29;;;;;;;4.70;2.88;;;;;;;25.77;40.36;94644.94;5089598;28;20016;-77
2023/07/30 07:02:54;;;;;;;4.63;3.03;;;;;;;25.55;41.21;94647.28;5090965;28;20040;-77
2023/07/30 07:05:20;;;;;;;5.18;3.17;;;;;;;25.50;41.17;94655.13;5090786;28;20074;-76
2023/07/30 07:07:45;;;;;;;4.40;3.20;;;;;;;25.59;40.39;94648.44;5089226;28;20048;-76
2023/07/30 07:10:11;;;;;;;5.85;3.33;;;;;;;25.69;40.23;94640.75;5074997;28;20048;-76
2023/07/30 07:12:38;;;;;;;8.85;2.72;;;;;;;26.04;39.51;94640.09;5093610;28;20402;-76
2023/07/30 07:15:04;;;;;;;3.92;2.90;;;;;;;26.37;38.79;94630.78;5093477;28;20054;-76
2023/07/30 07:17:29;;;;;;;5.50;2.85;;;;;;;26.18;39.23;94640.69;5093309;28;20060;-76
2023/07/30 07:19:55;;;;;;;3.97;3.08;;;;;;;26.61;38.13;94629.00;5094733;28;20020;-76
2023/07/30 07:22:20;;;;;;;3.78;2.60;;;;;;;26.20;38.60;94618.13;5093299;28;20093;-76
2023/07/30 07:24:45;;;;;;;5.72;2.90;;;;;;;26.39;39.34;94637.50;5094592;28;20421;-77
2023/07/30 07:27:11;;;;;;;4.20;2.95;;;;;;;26.38;39.11;94621.75;5094535;28;20058;-77
2023/07/30 07:29:37;;;;;;;6.93;3.20;;;;;;;26.58;38.50;94606.31;5076240;28;20028;-77
2023/07/30 07:32:02;;;;;;;6.60;2.90;;;;;;;26.93;37.46;94624.13;5094397;28;20027;-76
2023/07/30 07:34:28;;;;;;;6.35;2.85;;;;;;;26.90;37.36;94617.38;5094310;28;20075;-76
2023/07/30 07:36:53;;;;;;;5.05;3.20;;;;;;;26.95;37.89;94616.69;5093064;28;20461;-76
2023/07/30 07:39:19;;;;;;;4.72;3.05;;;;;;;26.81;38.23;94604.66;5075996;28;20032;-77
2023/07/30 07:41:44;;;;;;;5.88;2.90;;;;;;;26.94;38.04;94601.75;5093039;28;20078;-76
2023/07/30 07:44:10;;;;;;;6.07;3.10;;;;;;;26.92;37.76;94599.31;5094559;28;20032;-77
2023/07/30 07:46:35;;;;;;;3.60;2.90;;;;;;;27.27;37.54;94613.66;5092953;28;20077;-76
2023/07/30 07:49:01;;;;;;;4.00;2.80;;;;;;;27.07;37.86;94601.50;5092750;28;20493;-77
2023/07/30 07:51:26;;;;;;;6.00;3.10;;;;;;;27.30;37.84;94605.19;5092767;28;20032;-77
2023/07/30 07:53:52;;;;;;;6.25;3.08;;;;;;;27.12;37.71;94596.28;5094459;28;20023;-77
2023/07/30 07:56:17;;;;;;;4.85;2.85;;;;;;;27.04;37.99;94588.63;5092763;28;20485;-76
2023/07/30 07:58:43;;;;;;;5.63;3.15;;;;;;;27.25;37.77;94599.78;5092724;28;20474;-77
2023/07/30 08:01:08;;;;;;;3.83;2.90;;;;;;;27.29;37.13;94606.25;5075656;28;20027;-77
2023/07/30 08:03:33;;;;;;;3.67;2.83;;;;;;;27.30;37.31;94590.03;5092696;28;20028;-77
2023/07/30 08:05:59;;;;;;;8.73;3.15;;;;;;;27.41;37.08;94599.00;5092605;28;20024;-77
2023/07/30 08:08:25;;;;;;;6.07;2.60;;;;;;;27.34;37.04;94591.16;5093599;28;20075;-77
2023/07/30 08:10:51;;;;;;;4.07;2.92;;;;;;;27.71;36.66;94590.78;5092483;28;20020;-77
2023/07/30 08:13:16;;;;;;;3.75;3.05;;;;;;;27.66;36.32;94584.53;5092442;28;20044;-77
2023/07/30 08:15:41;;;;;;;3.60;3.05;;;;;;;27.99;36.24;94592.63;5092307;28;20024;-77
2023/07/30 08:18:07;;;;;;;4.72;3.00;;;;;;;28.04;35.45;94590.06;5092198;28;20044;-77
2023/07/30 08:20:32;;;;;;;4.05;2.88;;;;;;;28.09;35.83;94588.53;5092414;28;20047;-77
2023/07/30 08:22:58;;;;;;;7.28;3.03;;;;;;;27.91;36.29;94579.69;5075360;28;20463;-76
2023/07/30 08:25:23;;;;;;;4.38;2.72;;;;;;;28.19;35.61;94580.69;5093422;28;20020;-76
2023/07/30 08:27:49;;;;;;;3.92;2.85;;;;;;;28.26;35.46;94582.16;5092103;28;20044;-76
2023/07/30 08:30:14;;;;;;;4.95;2.85;;;;;;;28.33;34.59;94578.50;5091956;28;20418;-77
2023/07/30 08:32:41;;;;;;;9.45;4.40;;;;;;;28.66;33.74;94572.34;5092056;28;20412;-77
2023/07/30 08:35:07;;;;;;;4.18;2.90;;;;;;;28.58;34.17;94564.75;5091980;28;20058;-76
2023/07/30 08:37:32;;;;;;;4.07;2.95;;;;;;;28.80;32.74;94565.59;5075138;28;20044;-76
2023/07/30 08:39:58;;;;;;;4.53;2.92;;;;;;;29.13;32.85;94572.75;5091903;28;20418;-77
2023/07/30 08:42:23;;;;;;;9.55;4.85;;;;;;;29.27;33.11;94570.50;5074822;28;20040;-77
2023/07/30 08:44:49;;;;;;;3.92;3.10;;;;;;;29.10;33.81;94553.72;5091654;28;20028;-76
2023/07/30 08:47:15;;;;;;;3.17;2.80;;;;;;;29.18;32.81;94551.41;5092849;28;20032;-77
2023/07/30 08:49:40;;;;;;;5.63;2.67;;;;;;;29.10;32.93;94561.75;5074794;28;20054;-80
2023/07/30 08:52:08;;;;;;;6.00;3.00;;;;;;;29.51;31.62;94559.56;5092988;28;20486;-77
2023/07/30 08:54:33;;;;;;;3.95;2.60;;;;;;;29.60;32.18;94550.81;5074688;28;20061;-77
2023/07/30 08:56:59;;;;;;;8.88;2.70;;;;;;;29.77;31.23;94547.25;5074776;28;20028;-78
2023/07/30 08:59:24;;;;;;;3.38;2.53;;;;;;;29.92;31.06;94554.63;5091460;28;20024;-77
2023/07/30 09:01:51;;;;;;;3.78;2.50;;;;;;;29.96;31.17;94547.72;5091421;28;20474;-77
2023/07/30 09:04:17;;;;;;;3.03;2.50;;;;;;;29.94;30.67;94552.50;5091434;28;20035;-77
2023/07/30 09:06:42;;;;;;;3.78;2.40;;;;;;;30.03;30.65;94550.97;5091418;28;20035;-77
2023/07/30 09:09:10;;;;;;;6.43;2.70;;;;;;;30.15;29.80;94540.91;5091249;28;20060;-77
2023/07/30 09:11:36;;;;;;;3.17;2.63;;;;;;;30.29;29.82;94538.66;5074279;28;20095;-77
2023/07/30 09:14:01;;;;;;;5.38;2.60;;;;;;;30.56;28.96;94535.84;5091389;28;20040;-77
2023/07/30 09:16:27;;;;;;;3.13;2.55;;;;;;;30.44;28.66;94538.72;5092424;28;20587;-77
2023/07/30 09:18:53;;;;;;;4.43;2.78;;;;;;;30.22;28.41;94525.44;5091336;28;20032;-77
2023/07/30 09:21:19;;;;;;;3.95;2.60;;;;;;;30.39;29.44;94535.22;5092314;28;20099;-77
2023/07/30 09:23:47;;;;;;;4.18;2.70;;;;;;;30.69;29.05;94535.41;5091171;28;20458;-77
2023/07/30 09:26:13;;;;;;;4.65;2.72;;;;;;;30.86;28.30;94531.78;5092184;28;20024;-77
2023/07/30 09:28:39;;;;;;;5.38;3.15;;;;;;;30.38;28.66;94529.06;5057559;28;20490;-78
2023/07/30 09:31:06;;;;;;;4.32;2.58;;;;;;;30.02;29.18;94519.91;5074272;28;20024;-77
2023/07/30 09:33:32;;;;;;;4.80;2.50;;;;;;;30.27;29.29;94525.50;5090344;28;20039;-78
2023/07/30 09:35:58;;;;;;;3.92;2.97;;;;;;;30.14;27.32;94525.88;5073853;28;20031;-77
2023/07/30 09:38:25;;;;;;;4.82;2.78;;;;;;;30.44;28.09;94524.53;5090744;28;20032;-77
2023/07/30 09:40:51;;;;;;;4.78;2.85;;;;;;;30.42;27.65;94505.22;5090729;28;20020;-75
2023/07/30 09:43:16;;;;;;;5.70;2.50;;;;;;;30.62;27.71;94508.03;5090741;28;20028;-77
2023/07/30 09:45:44;;;;;;;7.63;2.80;;;;;;;30.60;27.32;94504.81;5090661;28;20023;-78
2023/07/30 09:48:09;;;;;;;3.72;2.70;;;;;;;30.77;27.55;94501.16;5090718;28;20464;-78
2023/07/30 09:50:36;;;;;;;4.93;2.92;;;;;;;30.60;26.75;94495.97;5091879;28;20085;-76
2023/07/30 09:53:02;;;;;;;3.70;2.70;;;;;;;30.67;26.93;94483.97;5073511;28;20084;-77
2023/07/30 09:55:27;;;;;;;5.03;2.90;;;;;;;30.92;26.89;94493.19;5091878;28;20028;-78
2023/07/30 09:57:52;;;;;;;4.57;2.63;;;;;;;30.87;25.06;94496.69;5073760;28;20036;-78
2023/07/30 10:00:18;;;;;;;3.83;2.70;;;;;;;30.81;26.15;94462.84;5090519;28;20073;-77
2023/07/30 10:02:47;;;;;;;3.40;2.85;;;;;;;30.99;26.38;94491.09;5091690;28;20032;-78
2023/07/30 10:05:16;;;;;;;3.25;2.60;;;;;;;30.83;26.09;94484.84;5091652;28;20051;-77
2023/07/30 10:08:04;;;;;;;4.82;2.83;;;;;;;30.84;26.16;94472.25;5091371;28;20094;-77
2023/07/30 10:10:29;;;;;;;5.63;3.35;;;;;;;30.77;26.58;94485.06;5089821;28;20036;-77
2023/07/30 10:12:55;;;;;;;3.92;3.00;;;;;;;30.67;26.41;94477.78;5090103;28;20035;-77
2023/07/30 10:15:23;;;;;;;4.55;2.85;;;;;;;30.80;26.62;94476.53;5090229;28;20110;-77
2023/07/30 10:17:48;;;;;;;5.60;2.90;;;;;;;30.87;26.08;94479.75;5090313;28;20032;-77
2023/07/30 10:20:21;;;;;;;3.78;2.88;;;;;;;31.07;26.76;94477.19;5091294;28;20026;-77
2023/07/30 10:22:47;;;;;;;4.53;3.00;;;;;;;31.02;26.15;94476.34;5090086;28;20512;-77
2023/07/30 10:25:12;;;;;;;2.92;2.63;;;;;;;30.85;26.45;94474.69;5090234;28;20035;-78
2023/07/30 10:27:39;;;;;;;3.70;2.80;;;;;;;30.77;26.85;94445.66;5089947;28;20040;-78
2023/07/30 10:30:09;;;;;;;3.88;2.92;;;;;;;31.02;26.92;94466.44;5073042;28;20414;-78
2023/07/30 10:32:55;;;;;;;3.17;2.77;;;;;;;30.88;27.11;94468.00;5073449;28;20032;-78
2023/07/30 10:35:46;;;;;;;3.78;2.90;;;;;;;30.62;27.97;94465.16;5090046;28;20035;-78
2023/07/30 10:38:15;;;;;;;6.60;3.00;;;;;;;30.57;27.64;94464.34;5089954;28;20036;-78
2023/07/30 10:40:40;;;;;;;3.58;3.00;;;;;;;30.57;27.66;94459.78;5091140;28;20023;-78
2023/07/30 10:43:16;;;;;;;3.53;2.90;;;;;;;30.63;27.53;94455.25;5089499;28;20042;-78
2023/07/30 10:45:50;;;;;;;3.10;2.80;;;;;;;30.48;27.83;94448.75;5090784;28;20027;-77
2023/07/30 10:48:19;;;;;;;4.45;3.03;;;;;;;30.59;27.03;94448.78;5091364;28;20039;-77
2023/07/30 10:50:48;;;;;;;5.10;3.10;;;;;;;30.72;27.22;94449.13;5089791;28;20028;-77
2023/07/30 10:53:15;;;;;;;4.18;2.80;;;;;;;30.71;27.80;94446.72;5090168;28;20036;-78
2023/07/30 10:55:41;;;;;;;3.47;2.75;;;;;;;30.63;27.87;94442.66;5089898;28;20020;-77
2023/07/30 10:58:06;;;;;;;3.65;3.08;;;;;;;30.69;27.51;94440.81;5091052;28;20036;-77
2023/07/30 11:00:32;;;;;;;6.20;3.15;;;;;;;30.59;27.61;94435.38;5089853;28;20028;-77
2023/07/30 11:02:57;;;;;;;3.58;2.70;;;;;;;30.65;26.92;94431.69;5089684;28;20040;-77
2023/07/30 11:05:24;;;;;;;4.22;3.33;;;;;;;30.70;27.06;94426.31;5089643;28;20093;-77
2023/07/30 11:07:51;;;;;;;3.92;3.10;;;;;;;30.88;26.37;94420.53;5089317;28;20472;-77
2023/07/30 11:10:16;;;;;;;4.15;3.00;;;;;;;30.81;26.95;94416.47;5089476;28;20141;-77
2023/07/30 11:12:42;;;;;;;4.07;2.97;;;;;;;30.76;26.79;94414.56;5089504;28;20123;-77
2023/07/30 11:15:08;;;;;;;3.70;3.20;;;;;;;30.85;26.33;94415.69;5089539;28;20032;-77
2023/07/30 11:17:33;;;;;;;3.38;3.05;;;;;;;30.86;27.37;94403.91;5072473;28;20032;-77
2023/07/30 11:19:59;;;;;;;4.60;2.80;;;;;;;30.96;27.10;94403.13;5072630;28;20039;-77
2023/07/30 11:22:34;;;;;;;4.50;2.85;;;;;;;30.89;27.22;94399.88;5090632;28;20028;-76
2023/07/30 11:25:01;;;;;;;5.85;3.20;;;;;;;30.96;26.89;94381.69;5089445;28;20024;-76
2023/07/30 11:27:27;;;;;;;5.05;3.00;;;;;;;31.00;27.65;94395.34;5089271;28;20034;-76